Terminal Aerodrome Forecast
Issued by NWS

Current Version | Previous Version | Text Only | Print | Product List | Glossary On
Versions: 1 2 3 4 5 6 7 8 9 10 11 12 13
000
FTUS44 KLIX 241721
TAFGPT
TAF
KGPT 241721Z 2418/2518 15016KT P6SM VCSH BKN025
     FM242000 15017KT P6SM VCTS BKN030CB
     FM250300 15012KT P6SM SCT030 BKN080
     FM251500 15011KT P6SM VCSH BKN025=

USA.gov is the U.S. government's official web portal to all federal, state and local government web resources and services.